createdAt,value
2023-04-08T00:02:27.507Z,76.80
2023-04-08T00:04:57.263Z,76.90
2023-04-08T00:07:25.566Z,77.00
2023-04-08T00:09:53.677Z,77.00
2023-04-08T00:12:21.848Z,76.90
2023-04-08T00:14:50.033Z,76.90
2023-04-08T00:17:18.165Z,76.80
2023-04-08T00:19:46.304Z,76.90
2023-04-08T00:22:15.790Z,76.90
2023-04-08T00:24:43.951Z,76.90
2023-04-08T00:27:12.073Z,76.90
2023-04-08T00:29:40.483Z,77.00
2023-04-08T00:32:08.698Z,77.00
2023-04-08T00:34:37.291Z,77.10
2023-04-08T00:37:05.730Z,76.90
2023-04-08T00:39:35.419Z,77.10
2023-04-08T00:42:03.548Z,77.10
2023-04-08T00:44:31.715Z,77.00
2023-04-08T00:46:59.927Z,77.10
2023-04-08T00:49:28.105Z,77.20
2023-04-08T00:51:56.526Z,77.30
2023-04-08T00:54:24.699Z,77.40
2023-04-08T00:56:54.309Z,77.40
2023-04-08T00:59:22.718Z,77.40
2023-04-08T01:01:56.883Z,77.40
2023-04-08T01:04:34.405Z,77.50
2023-04-08T01:07:09.645Z,77.50
2023-04-08T01:09:41.065Z,77.40
2023-04-08T01:12:14.113Z,77.50
2023-04-08T01:14:46.968Z,77.50
2023-04-08T01:17:16.028Z,77.50
2023-04-08T01:19:44.963Z,77.40
2023-04-08T01:22:32.596Z,77.60
2023-04-08T01:25:06.517Z,77.60
2023-04-08T01:27:36.869Z,77.60
2023-04-08T01:30:07.711Z,77.60
2023-04-08T01:32:37.867Z,77.60
2023-04-08T01:35:07.584Z,77.60
2023-04-08T01:37:36.950Z,77.70
2023-04-08T01:40:07.298Z,77.90
2023-04-08T01:42:37.833Z,78.00
2023-04-08T01:45:07.398Z,78.10
2023-04-08T01:47:37.077Z,78.50
2023-04-08T01:50:06.310Z,78.30
2023-04-08T01:52:36.930Z,78.70
2023-04-08T01:55:06.118Z,78.80
2023-04-08T01:57:38.297Z,79.00
2023-04-08T02:00:09.963Z,78.90
2023-04-08T02:02:39.295Z,79.00
2023-04-08T02:05:08.581Z,79.20
2023-04-08T02:07:36.867Z,79.10
2023-04-08T02:10:05.564Z,79.10
2023-04-08T02:12:36.187Z,79.00
2023-04-08T02:15:04.825Z,79.00
2023-04-08T02:17:37.501Z,79.00
2023-04-08T02:20:09.425Z,78.90
2023-04-08T02:22:42.317Z,78.60
2023-04-08T02:25:18.045Z,78.50
2023-04-08T02:27:48.868Z,78.70
2023-04-08T02:30:17.811Z,78.90
2023-04-08T02:32:47.036Z,79.00
2023-04-08T02:35:17.427Z,79.10
2023-04-08T02:37:48.129Z,79.10
2023-04-08T02:40:27.052Z,78.90
2023-04-08T02:42:56.934Z,78.80
2023-04-08T02:45:28.590Z,78.80
2023-04-08T02:47:57.360Z,78.80
2023-04-08T02:50:25.699Z,78.80
2023-04-08T02:52:53.791Z,78.60
2023-04-08T02:55:22.037Z,78.60
2023-04-08T02:57:50.534Z,78.70
2023-04-08T03:00:20.342Z,78.70
2023-04-08T03:02:48.695Z,78.80
2023-04-08T03:05:17.112Z,78.70
2023-04-08T03:07:45.422Z,78.80
2023-04-08T03:10:13.656Z,78.70
2023-04-08T03:12:41.792Z,78.70
2023-04-08T03:15:10.442Z,78.80
2023-04-08T03:17:39.982Z,78.80
2023-04-08T03:20:09.422Z,78.80
2023-04-08T03:22:38.088Z,78.90
2023-04-08T03:25:07.011Z,78.80
2023-04-08T03:27:35.260Z,78.80
2023-04-08T03:30:03.578Z,78.80
2023-04-08T03:32:31.939Z,78.80
2023-04-08T03:35:01.624Z,78.70
2023-04-08T03:37:29.798Z,78.70
2023-04-08T03:39:58.009Z,78.60
2023-04-08T03:42:26.161Z,78.70
2023-04-08T03:44:54.272Z,78.80
2023-04-08T03:47:22.467Z,79.00
2023-04-08T03:49:50.619Z,79.00
2023-04-08T03:52:20.145Z,79.00
2023-04-08T03:54:48.278Z,79.00
2023-04-08T03:57:16.539Z,79.10
2023-04-08T03:59:44.760Z,79.10
2023-04-08T04:02:12.890Z,79.20
2023-04-08T04:04:41.243Z,79.20
2023-04-08T04:07:09.441Z,79.20
2023-04-08T04:09:38.900Z,79.20
2023-04-08T04:12:07.141Z,79.30
2023-04-08T04:14:35.256Z,79.20
2023-04-08T04:17:03.406Z,79.20
2023-04-08T04:19:32.274Z,79.20
2023-04-08T04:22:00.433Z,79.20
2023-04-08T04:24:28.562Z,79.30
2023-04-08T04:26:58.049Z,79.30
2023-04-08T04:29:26.154Z,79.30
2023-04-08T04:31:54.334Z,79.30
2023-04-08T04:34:22.406Z,79.30
2023-04-08T04:36:50.487Z,79.30
2023-04-08T04:39:18.613Z,79.40
2023-04-08T04:41:48.744Z,79.30
2023-04-08T04:44:18.222Z,79.40
2023-04-08T04:46:46.467Z,79.40
2023-04-08T04:49:14.651Z,79.20
2023-04-08T04:51:42.777Z,79.60
2023-04-08T04:54:10.883Z,79.70
2023-04-08T04:56:39.097Z,79.80
2023-04-08T04:59:07.233Z,79.80
2023-04-08T05:01:37.076Z,79.70
2023-04-08T05:04:05.496Z,79.70
2023-04-08T05:06:33.674Z,79.90
2023-04-08T05:09:01.778Z,79.90
2023-04-08T05:11:29.875Z,79.90
2023-04-08T05:13:58.019Z,79.90
2023-04-08T05:16:26.257Z,80.00
2023-04-08T05:18:55.876Z,79.90
2023-04-08T05:21:24.044Z,79.80
2023-04-08T05:23:53.109Z,79.80
2023-04-08T05:26:21.801Z,79.90
2023-04-08T05:28:50.252Z,79.90
2023-04-08T05:31:18.737Z,79.90
2023-04-08T05:33:47.334Z,79.70
2023-04-08T05:36:16.861Z,79.80
2023-04-08T05:38:45.101Z,79.90
2023-04-08T05:41:13.303Z,80.00
2023-04-08T05:43:41.552Z,80.00
2023-04-08T05:46:10.595Z,80.10
2023-04-08T05:48:38.847Z,80.00
2023-04-08T05:51:06.978Z,79.90
2023-04-08T05:53:37.070Z,79.60
2023-04-08T05:56:05.589Z,79.80
2023-04-08T05:58:33.700Z,79.70
2023-04-08T06:01:01.778Z,79.70
2023-04-08T06:03:31.756Z,79.60
2023-04-08T06:05:59.995Z,79.60
2023-04-08T06:08:28.144Z,79.30
2023-04-08T06:10:57.633Z,79.40
2023-04-08T06:13:26.041Z,79.30
2023-04-08T06:15:54.176Z,79.20
2023-04-08T06:18:22.294Z,79.00
2023-04-08T06:20:50.625Z,78.90
2023-04-08T06:23:18.753Z,78.70
2023-04-08T06:25:47.644Z,78.60
2023-04-08T06:28:17.145Z,78.50
2023-04-08T06:30:45.334Z,78.40
2023-04-08T06:33:13.507Z,78.20
2023-04-08T06:35:42.296Z,78.00
2023-04-08T06:38:10.437Z,77.90
2023-04-08T06:40:40.084Z,77.70
2023-04-08T06:43:08.223Z,77.80
2023-04-08T06:45:37.792Z,77.70
2023-04-08T06:48:06.921Z,77.60
2023-04-08T06:50:35.107Z,77.80
2023-04-08T06:53:03.212Z,77.60
2023-04-08T06:55:31.389Z,77.20
2023-04-08T06:57:59.486Z,77.50
2023-04-08T07:00:27.633Z,77.90
2023-04-08T07:02:57.246Z,77.50
2023-04-08T07:05:25.456Z,77.00
2023-04-08T07:07:53.560Z,76.90
2023-04-08T07:10:21.908Z,77.00
2023-04-08T07:12:50.012Z,77.10
2023-04-08T07:15:18.302Z,77.00
2023-04-08T07:17:46.616Z,77.00
2023-04-08T07:20:18.393Z,76.40
2023-04-08T07:22:46.703Z,76.40
2023-04-08T07:25:15.028Z,76.10
2023-04-08T07:27:43.184Z,76.00
2023-04-08T07:30:11.854Z,75.70
2023-04-08T07:32:40.141Z,75.50
2023-04-08T07:35:09.058Z,75.50
2023-04-08T07:37:38.549Z,75.10
2023-04-08T07:40:07.975Z,75.30
2023-04-08T07:42:36.087Z,75.00
2023-04-08T07:45:04.456Z,74.60
2023-04-08T07:47:32.641Z,74.50
2023-04-08T07:50:01.231Z,74.00
2023-04-08T07:52:31.092Z,73.60
2023-04-08T07:55:01.572Z,73.60
2023-04-08T07:57:32.933Z,73.50
2023-04-08T08:00:01.282Z,73.50
2023-04-08T08:02:29.565Z,72.80
2023-04-08T08:04:57.913Z,72.30
2023-04-08T08:07:26.066Z,71.60
2023-04-08T08:09:54.212Z,71.40
2023-04-08T08:12:26.265Z,71.40
2023-04-08T08:14:59.026Z,71.00
2023-04-08T08:17:30.228Z,70.50
2023-04-08T08:19:58.469Z,70.30
2023-04-08T08:22:27.142Z,70.60
2023-04-08T08:24:57.893Z,70.90
2023-04-08T08:27:27.450Z,71.10
2023-04-08T08:29:55.576Z,70.30
2023-04-08T08:32:23.697Z,70.80
2023-04-08T08:34:51.794Z,70.60
2023-04-08T08:37:19.899Z,70.80
2023-04-08T08:39:48.165Z,70.40
2023-04-08T08:42:22.722Z,70.40
2023-04-08T08:44:52.257Z,69.90
2023-04-08T08:47:20.528Z,70.40
2023-04-08T08:49:49.492Z,70.10
2023-04-08T08:52:18.339Z,69.90
2023-04-08T08:54:47.043Z,69.80
2023-04-08T08:57:19.707Z,69.70
2023-04-08T08:59:48.815Z,68.70
2023-04-08T09:02:28.376Z,68.70
2023-04-08T09:05:01.818Z,69.30
2023-04-08T09:07:32.024Z,69.30
2023-04-08T09:10:01.333Z,68.70
2023-04-08T09:12:31.324Z,68.40
2023-04-08T09:15:07.363Z,68.80
2023-04-08T09:17:38.972Z,68.50
2023-04-08T09:20:11.839Z,68.30
2023-04-08T09:23:00.384Z,67.90
2023-04-08T09:25:30.715Z,67.80
2023-04-08T09:27:58.892Z,67.60
2023-04-08T09:30:28.662Z,67.70
2023-04-08T09:32:59.259Z,67.50
2023-04-08T09:35:27.497Z,66.60
2023-04-08T09:37:55.701Z,66.80
2023-04-08T09:40:26.438Z,67.10
2023-04-08T09:42:56.291Z,67.50
2023-04-08T09:45:28.149Z,67.10
2023-04-08T09:48:15.746Z,67.00
2023-04-08T09:50:49.040Z,67.10
2023-04-08T09:53:23.299Z,66.80
2023-04-08T09:55:53.660Z,66.40
2023-04-08T09:58:27.708Z,66.20
2023-04-08T10:00:56.595Z,66.00
2023-04-08T10:03:31.945Z,65.50
2023-04-08T10:06:02.355Z,65.30
2023-04-08T10:08:31.558Z,65.40
2023-04-08T10:10:59.698Z,65.30
2023-04-08T10:13:29.694Z,64.90
2023-04-08T10:16:19.861Z,65.20
2023-04-08T10:18:51.097Z,64.90
2023-04-08T10:21:43.479Z,64.80
2023-04-08T10:24:12.159Z,64.60
2023-04-08T10:26:44.149Z,64.50
2023-04-08T10:29:46.474Z,64.20
2023-04-08T10:32:30.301Z,63.80
2023-04-08T10:34:59.821Z,64.00
2023-04-08T10:37:28.683Z,63.70
2023-04-08T10:39:56.918Z,64.20
2023-04-08T10:42:29.740Z,63.60
2023-04-08T10:45:03.000Z,63.70
2023-04-08T10:47:31.201Z,63.70
2023-04-08T10:50:01.195Z,63.70
2023-04-08T10:52:29.374Z,63.40
2023-04-08T10:54:57.575Z,63.40
2023-04-08T10:57:26.344Z,63.50
2023-04-08T10:59:54.701Z,63.00
2023-04-08T11:02:22.922Z,63.10
2023-04-08T11:04:51.265Z,63.10
2023-04-08T11:07:23.156Z,63.00
2023-04-08T11:09:51.281Z,62.80
2023-04-08T11:12:20.054Z,62.40
2023-04-08T11:14:49.576Z,62.20
2023-04-08T11:17:17.946Z,62.30
2023-04-08T11:19:46.160Z,62.10
2023-04-08T11:22:14.588Z,62.20
2023-04-08T11:24:44.291Z,61.70
2023-04-08T11:27:12.607Z,61.40
2023-04-08T11:29:41.048Z,62.00
2023-04-08T11:32:10.184Z,62.00
2023-04-08T11:34:41.701Z,62.20
2023-04-08T11:37:09.847Z,62.00
2023-04-08T11:39:44.806Z,62.20
2023-04-08T11:42:28.221Z,62.20
2023-04-08T11:44:56.446Z,61.30
2023-04-08T11:47:32.213Z,60.80
2023-04-08T11:50:01.573Z,60.70
2023-04-08T11:52:43.145Z,60.70
2023-04-08T11:55:13.222Z,60.50
2023-04-08T11:57:41.403Z,60.20
2023-04-08T12:00:10.265Z,59.90
2023-04-08T12:02:38.427Z,59.70
2023-04-08T12:05:07.904Z,59.90
2023-04-08T12:07:36.244Z,60.40
2023-04-08T12:10:04.530Z,60.50
2023-04-08T12:12:34.083Z,60.30
2023-04-08T12:15:02.250Z,60.60
2023-04-08T12:17:30.568Z,60.70
2023-04-08T12:19:58.810Z,60.80
2023-04-08T12:22:26.966Z,60.80
2023-04-08T12:24:55.203Z,61.20
2023-04-08T12:27:23.845Z,61.30
2023-04-08T12:29:53.531Z,61.30
2023-04-08T12:32:21.840Z,61.20
2023-04-08T12:34:50.034Z,61.30
2023-04-08T12:37:18.258Z,61.30
2023-04-08T12:39:46.452Z,61.20
2023-04-08T12:42:14.711Z,60.90
2023-04-08T12:44:42.902Z,61.00
2023-04-08T12:47:12.539Z,60.60
2023-04-08T12:52:11.831Z,60.40
2023-04-08T12:54:39.920Z,60.00
2023-04-08T12:57:08.867Z,59.60
2023-04-08T12:59:38.086Z,59.60
2023-04-08T13:02:06.340Z,59.10
2023-04-08T13:04:35.940Z,57.80
2023-04-08T13:07:04.574Z,57.30
2023-04-08T13:09:32.726Z,57.40
2023-04-08T13:12:00.847Z,57.20
2023-04-08T13:14:28.953Z,57.30
2023-04-08T13:16:57.137Z,57.00
2023-04-08T13:19:25.574Z,57.10
2023-04-08T13:21:55.197Z,57.20
2023-04-08T13:24:23.616Z,56.80
2023-04-08T13:26:51.826Z,56.90
2023-04-08T13:29:19.955Z,56.90
2023-04-08T13:31:48.154Z,57.10
2023-04-08T13:34:16.402Z,56.90
2023-04-08T13:36:44.685Z,57.10
2023-04-08T13:39:14.172Z,57.00
2023-04-08T13:41:42.297Z,57.40
2023-04-08T13:44:10.465Z,57.60
2023-04-08T13:46:39.610Z,57.20
2023-04-08T13:49:07.804Z,57.90
2023-04-08T13:51:36.113Z,57.80
2023-04-08T13:54:04.696Z,57.70
2023-04-08T13:56:34.228Z,57.70
2023-04-08T13:59:02.645Z,57.60
2023-04-08T14:01:31.810Z,57.20
2023-04-08T14:04:00.483Z,57.90
2023-04-08T14:06:28.607Z,58.30
2023-04-08T14:08:56.786Z,58.30
2023-04-08T14:11:24.981Z,57.90
2023-04-08T14:13:54.459Z,58.10
2023-04-08T14:16:22.636Z,58.40
2023-04-08T14:18:51.387Z,58.70
2023-04-08T14:21:19.692Z,58.50
2023-04-08T14:23:48.235Z,58.90
2023-04-08T14:26:16.432Z,58.80
2023-04-08T14:28:44.512Z,59.00
2023-04-08T14:31:14.063Z,59.20
2023-04-08T14:33:42.295Z,58.90
2023-04-08T14:36:10.587Z,58.70
2023-04-08T14:38:39.280Z,58.90
2023-04-08T14:41:07.748Z,59.10
2023-04-08T14:43:35.872Z,59.10
2023-04-08T14:46:04.075Z,58.90
2023-04-08T14:48:33.614Z,58.70
2023-04-08T14:51:02.005Z,58.90
2023-04-08T14:53:30.075Z,58.60
2023-04-08T14:55:58.579Z,58.90
2023-04-08T14:58:26.900Z,59.20
2023-04-08T15:00:55.761Z,59.00
2023-04-08T15:03:23.985Z,58.30
2023-04-08T15:05:55.802Z,58.50
2023-04-08T15:08:24.046Z,58.50
2023-04-08T15:10:52.183Z,58.40
2023-04-08T15:13:20.309Z,58.40
2023-04-08T15:15:48.448Z,58.70
2023-04-08T15:18:16.583Z,58.20
2023-04-08T15:20:44.659Z,58.20
2023-04-08T15:23:14.301Z,57.80
2023-04-08T15:25:42.512Z,58.10
2023-04-08T15:28:10.694Z,58.00
2023-04-08T15:30:38.800Z,57.90
2023-04-08T15:33:07.125Z,57.70
2023-04-08T15:35:35.301Z,57.50
2023-04-08T15:38:03.421Z,57.40
2023-04-08T15:40:34.475Z,57.50
2023-04-08T15:43:03.896Z,57.50
2023-04-08T15:45:32.041Z,57.30
2023-04-08T15:48:00.760Z,57.30
2023-04-08T15:50:30.893Z,57.20
2023-04-08T15:52:59.025Z,56.90
2023-04-08T15:55:27.160Z,57.00
2023-04-08T15:57:57.281Z,57.10
2023-04-08T16:00:26.238Z,57.20
2023-04-08T16:02:55.258Z,57.00
2023-04-08T16:05:23.935Z,56.90
2023-04-08T16:07:52.100Z,56.70
2023-04-08T16:10:20.342Z,56.40
2023-04-08T16:12:49.261Z,56.40
2023-04-08T16:15:18.812Z,56.30
2023-04-08T16:17:51.895Z,56.40
2023-04-08T16:20:20.733Z,56.20
2023-04-08T16:22:50.136Z,56.20
2023-04-08T16:25:18.770Z,56.40
2023-04-08T16:27:47.582Z,56.60
2023-04-08T16:30:15.903Z,56.60
2023-04-08T16:32:45.441Z,56.80
2023-04-08T16:35:13.575Z,56.80
2023-04-08T16:37:41.670Z,57.00
2023-04-08T16:40:11.402Z,57.10
2023-04-08T16:42:39.515Z,57.20
2023-04-08T16:45:08.873Z,57.30
2023-04-08T16:47:37.008Z,57.60
2023-04-08T16:50:08.245Z,57.50
2023-04-08T16:52:36.598Z,57.60
2023-04-08T16:55:05.298Z,57.70
2023-04-08T16:57:33.405Z,57.70
2023-04-08T17:00:01.547Z,57.70
2023-04-08T17:02:29.763Z,57.70
2023-04-08T17:04:57.992Z,57.80
2023-04-08T17:07:28.308Z,58.00
2023-04-08T17:09:56.453Z,58.20
2023-04-08T17:12:24.624Z,58.30
2023-04-08T17:14:52.833Z,58.50
2023-04-08T17:17:20.975Z,58.80
2023-04-08T17:19:49.158Z,59.10
2023-04-08T17:22:17.239Z,59.20
2023-04-08T17:24:48.081Z,59.20
2023-04-08T17:27:16.343Z,59.40
2023-04-08T17:29:44.473Z,59.40
2023-04-08T17:32:13.454Z,59.70
2023-04-08T17:34:41.874Z,59.90
2023-04-08T17:37:10.507Z,60.00
2023-04-08T17:39:40.908Z,60.20
2023-04-08T17:42:10.994Z,60.30
2023-04-08T17:44:42.170Z,60.30
2023-04-08T17:47:10.505Z,60.40
2023-04-08T17:49:38.676Z,60.50
2023-04-08T17:52:07.201Z,60.50
2023-04-08T17:54:35.617Z,60.60
2023-04-08T17:57:04.138Z,60.60
2023-04-08T17:59:34.013Z,60.60
2023-04-08T18:02:02.289Z,60.80
2023-04-08T18:04:30.888Z,61.00
2023-04-08T18:06:59.190Z,61.10
2023-04-08T18:09:27.292Z,61.50
2023-04-08T18:11:55.459Z,61.60
2023-04-08T18:14:23.789Z,61.70
2023-04-08T18:16:53.266Z,61.90
2023-04-08T18:19:21.407Z,62.00
2023-04-08T18:21:49.509Z,62.10
2023-04-08T18:24:17.614Z,62.30
2023-04-08T18:26:49.111Z,62.50
2023-04-08T18:29:22.529Z,62.80
2023-04-08T18:31:52.034Z,63.00
2023-04-08T18:34:20.866Z,63.30
2023-04-08T18:36:48.928Z,63.40
2023-04-08T18:39:17.093Z,63.50
2023-04-08T18:41:45.312Z,63.60
2023-04-08T18:44:13.762Z,63.80
2023-04-08T18:46:42.211Z,64.10
2023-04-08T18:49:12.006Z,64.10
2023-04-08T18:51:42.130Z,64.20
2023-04-08T18:54:14.434Z,64.40
2023-04-08T18:56:42.572Z,64.50
2023-04-08T18:59:10.745Z,64.50
2023-04-08T19:01:40.679Z,64.70
2023-04-08T19:04:10.521Z,64.80
2023-04-08T19:06:40.280Z,64.90
2023-04-08T19:09:08.595Z,65.00
2023-04-08T19:11:36.882Z,65.30
2023-04-08T19:14:05.242Z,65.50
2023-04-08T19:16:33.931Z,65.70
2023-04-08T19:19:02.392Z,65.80
2023-04-08T19:21:31.809Z,65.90
2023-04-08T19:24:01.419Z,66.00
2023-04-08T19:26:29.798Z,66.00
2023-04-08T19:28:57.929Z,66.10
2023-04-08T19:31:26.131Z,66.10
2023-04-08T19:33:54.489Z,66.20
2023-04-08T19:36:22.735Z,66.40
2023-04-08T19:38:50.852Z,66.60
2023-04-08T19:41:21.190Z,66.70
2023-04-08T19:43:49.443Z,66.90
2023-04-08T19:46:17.714Z,66.90
2023-04-08T19:48:46.528Z,67.00
2023-04-08T19:51:20.262Z,67.20
2023-04-08T19:53:49.866Z,67.40
2023-04-08T19:56:19.890Z,67.40
2023-04-08T19:58:48.320Z,67.60
2023-04-08T20:01:16.846Z,67.80
2023-04-08T20:03:50.012Z,67.80
2023-04-08T20:06:18.858Z,68.20
2023-04-08T20:08:47.398Z,68.30
2023-04-08T20:11:15.520Z,68.40
2023-04-08T20:13:46.904Z,68.50
2023-04-08T20:16:15.285Z,68.60
2023-04-08T20:18:43.529Z,68.70
2023-04-08T20:21:13.921Z,68.80
2023-04-08T20:23:44.460Z,68.90
2023-04-08T20:26:13.238Z,69.10
2023-04-08T20:28:41.908Z,69.20
2023-04-08T20:31:11.411Z,69.30
2023-04-08T20:33:43.711Z,69.40
2023-04-08T20:36:13.473Z,69.50
2023-04-08T20:38:48.660Z,69.60
2023-04-08T20:41:20.422Z,69.70
2023-04-08T20:43:48.512Z,69.70
2023-04-08T20:46:18.219Z,69.90
2023-04-08T20:48:47.159Z,69.90
2023-04-08T20:51:17.425Z,70.00
2023-04-08T20:53:45.787Z,70.00
2023-04-08T20:56:13.911Z,70.10
2023-04-08T20:58:42.000Z,69.90
2023-04-08T21:01:11.089Z,69.90
2023-04-08T21:03:40.826Z,69.70
2023-04-08T21:06:09.123Z,69.80
2023-04-08T21:08:37.325Z,69.90
2023-04-08T21:11:05.390Z,69.80
2023-04-08T21:13:33.500Z,69.80
2023-04-08T21:16:01.797Z,69.80
2023-04-08T21:18:29.999Z,70.00
2023-04-08T21:20:59.597Z,70.20
2023-04-08T21:23:28.117Z,70.30
2023-04-08T21:25:56.339Z,70.40
2023-04-08T21:28:24.531Z,70.50
2023-04-08T21:30:52.693Z,70.80
2023-04-08T21:33:21.109Z,70.90
2023-04-08T21:35:49.248Z,70.90
2023-04-08T21:38:18.783Z,70.80
2023-04-08T21:40:46.866Z,71.00
2023-04-08T21:43:14.954Z,70.90
2023-04-08T21:45:43.125Z,70.80
2023-04-08T21:48:11.350Z,70.60
2023-04-08T21:50:39.639Z,70.80
2023-04-08T21:53:07.711Z,70.80
2023-04-08T21:55:37.192Z,70.60
2023-04-08T21:58:05.317Z,70.80
2023-04-08T22:00:33.479Z,70.80
2023-04-08T22:03:02.034Z,70.70
2023-04-08T22:05:32.390Z,70.70
2023-04-08T22:08:01.225Z,70.80
2023-04-08T22:10:29.533Z,70.80
2023-04-08T22:12:59.000Z,70.80
2023-04-08T22:15:27.247Z,70.70
2023-04-08T22:17:56.028Z,70.70
2023-04-08T22:20:24.420Z,70.90
2023-04-08T22:22:52.604Z,71.00
2023-04-08T22:25:20.837Z,70.90
2023-04-08T22:27:48.984Z,71.10
2023-04-08T22:30:18.618Z,71.20
2023-04-08T22:32:46.735Z,71.10
2023-04-08T22:35:15.112Z,71.10
2023-04-08T22:37:43.200Z,71.20
2023-04-08T22:40:11.730Z,71.20
2023-04-08T22:42:39.912Z,71.30
2023-04-08T22:45:08.707Z,71.30
2023-04-08T22:47:38.463Z,71.30
2023-04-08T22:50:07.652Z,71.50
2023-04-08T22:52:35.812Z,71.50
2023-04-08T22:55:04.079Z,71.40
2023-04-08T22:57:32.227Z,71.50
2023-04-08T23:00:02.077Z,71.40
2023-04-08T23:02:31.734Z,71.20
2023-04-08T23:05:01.295Z,71.50
2023-04-08T23:07:29.447Z,71.50
2023-04-08T23:09:57.558Z,71.40
2023-04-08T23:12:25.673Z,71.40
2023-04-08T23:14:53.780Z,71.50
2023-04-08T23:17:21.915Z,71.50
2023-04-08T23:19:50.116Z,71.60
2023-04-08T23:22:19.755Z,71.70
2023-04-08T23:24:48.341Z,72.00
2023-04-08T23:27:16.535Z,72.10
2023-04-08T23:29:45.933Z,72.10
2023-04-08T23:32:14.286Z,72.20
2023-04-08T23:34:42.556Z,72.20
2023-04-08T23:37:10.725Z,72.20
2023-04-08T23:39:40.362Z,72.20
2023-04-08T23:42:11.193Z,72.30
2023-04-08T23:44:39.341Z,72.40
2023-04-08T23:47:07.468Z,72.40
2023-04-08T23:49:35.634Z,72.40
2023-04-08T23:52:03.824Z,72.40
2023-04-08T23:54:35.440Z,72.40
2023-04-08T23:57:04.986Z,72.40
2023-04-08T23:59:33.170Z,72.70
